Time;durP1;ratioP1;P1;durP2;ratioP2;P2;SDS_P1;SDS_P2;PMS_P1;PMS_P2;Temp;Humidity;BMP_temperature;BMP_pressure;BME280_temperature;BME280_humidity;BME280_pressure;Samples;Min_cycle;Max_cycle;Signal;HPM_P1;HPM_P2
2022/09/07 00:11:21;;;;;;;;;;;;;;;12.00;90.75;100254.44;5712877;22;1656;-71
2022/09/07 00:13:48;;;;;;;;;;;;;;;11.98;90.57;100251.28;5011916;28;1401;-72
2022/09/07 00:16:17;;;;;;;;;;;;;;;11.97;91.13;100253.25;5013073;28;834;-72
2022/09/07 00:18:44;;;;;;;;;;;;;;;11.96;91.27;100250.88;5012963;28;869;-72
2022/09/07 00:21:10;;;;;;;;;;;;;;;11.94;90.93;100251.28;5012941;28;2293;-72
2022/09/07 00:23:38;;;;;;;;;;;;;;;11.97;91.30;100249.66;5012905;28;893;-72
2022/09/07 00:26:10;;;;;;;;;;;;;;;11.94;91.34;100242.97;5012805;28;807;-71
2022/09/07 00:28:37;;;;;;;;;;;;;;;11.92;91.42;100247.31;5013332;28;851;-72
2022/09/07 00:31:08;;;;;;;;;;;;;;;11.88;91.57;100246.50;5013260;28;744;-72
2022/09/07 00:33:34;;;;;;;;;;;;;;;11.85;91.64;100245.34;5013163;28;847;-71
2022/09/07 00:36:01;;;;;;;;;;;;;;;11.87;92.14;100250.50;5012700;28;909;-71
2022/09/07 00:38:28;;;;;;;;;;;;;;;11.83;92.62;100248.50;5012678;28;842;-72
2022/09/07 00:40:54;;;;;;;;;;;;;;;11.83;92.33;100247.72;5012450;28;1902;-72
2022/09/07 00:43:34;;;;;;;;;;;;;;;11.83;92.48;100244.94;5012591;28;842;-71
2022/09/07 00:46:01;;;;;;;;;;;;;;;11.86;92.71;100244.13;4995206;28;1284;-72
2022/09/07 00:48:35;;;;;;;;;;;;;;;11.88;92.66;100249.28;5012364;28;845;-72
2022/09/07 00:51:04;;;;;;;;;;;;;;;11.85;92.58;100243.34;5012508;28;937;-62
2022/09/07 00:53:36;;;;;;;;;;;;;;;11.84;92.68;100241.78;5012405;28;822;-65
2022/09/07 00:56:04;;;;;;;;;;;;;;;11.81;92.65;100247.34;5012300;28;858;-71
2022/09/07 00:58:33;;;;;;;;;;;;;;;11.80;93.16;100254.06;5012313;28;823;-72
2022/09/07 01:00:59;;;;;;;;;;;;;;;11.77;92.94;100243.78;5012233;28;1957;-69
2022/09/07 01:03:27;;;;;;;;;;;;;;;11.76;93.46;100244.97;5012203;28;897;-69
2022/09/07 01:05:53;;;;;;;;;;;;;;;11.77;93.32;100238.25;5012224;28;807;-69
2022/09/07 01:08:20;;;;;;;;;;;;;;;11.76;93.27;100236.69;4994543;28;1363;-70
2022/09/07 01:10:47;;;;;;;;;;;;;;;11.75;93.36;100243.38;5011991;28;914;-69
2022/09/07 01:13:14;;;;;;;;;;;;;;;11.73;93.49;100238.25;5011969;28;1483;-69
2022/09/07 01:15:43;;;;;;;;;;;;;;;11.73;93.62;100243.78;5012114;28;846;-68
2022/09/07 01:18:18;;;;;;;;;;;;;;;11.72;93.87;100241.44;5011918;28;783;-69
2022/09/07 01:20:58;;;;;;;;;;;;;;;11.72;93.88;100244.19;5012310;28;1981;-69
2022/09/07 01:23:34;;;;;;;;;;;;;;;11.72;93.86;100244.19;5011985;28;806;-68
2022/09/07 01:26:18;;;;;;;;;;;;;;;11.72;93.87;100239.44;5012184;28;855;-69
2022/09/07 01:28:48;;;;;;;;;;;;;;;11.69;93.98;100243.00;5012174;28;811;-69
2022/09/07 01:31:26;;;;;;;;;;;;;;;11.68;94.06;100244.19;5012101;28;874;-70
2022/09/07 01:33:53;;;;;;;;;;;;;;;11.65;94.50;100234.72;5011971;28;897;-70
2022/09/07 01:36:22;;;;;;;;;;;;;;;11.65;94.20;100242.25;5011701;28;935;-71
2022/09/07 01:38:52;;;;;;;;;;;;;;;11.68;94.41;100235.13;5011799;28;839;-72
2022/09/07 01:41:25;;;;;;;;;;;;;;;11.63;94.25;100233.53;4992452;28;1894;-72
2022/09/07 01:44:04;;;;;;;;;;;;;;;11.57;94.78;100235.13;5011938;28;799;-71
2022/09/07 01:46:48;;;;;;;;;;;;;;;11.51;94.53;100225.66;5011713;28;913;-72
2022/09/07 01:49:15;;;;;;;;;;;;;;;11.45;95.07;100222.50;5011748;28;799;-71
2022/09/07 01:51:44;;;;;;;;;;;;;;;11.41;95.31;100213.41;4994275;28;1299;-68
2022/09/07 01:54:31;;;;;;;;;;;;;;;11.41;95.35;100219.75;5011727;28;858;-67
2022/09/07 01:57:01;;;;;;;;;;;;;;;11.38;95.28;100215.00;5004216;28;1181;-67
2022/09/07 01:59:30;;;;;;;;;;;;;;;11.35;95.45;100224.09;5011805;28;807;-67
2022/09/07 02:02:02;;;;;;;;;;;;;;;11.32;95.62;100216.59;5014437;28;1918;-67
2022/09/07 02:04:51;;;;;;;;;;;;;;;11.33;95.63;100211.81;5016143;28;795;-67
2022/09/07 02:07:24;;;;;;;;;;;;;;;11.37;95.97;100215.38;5010576;28;1018;-67
2022/09/07 02:09:58;;;;;;;;;;;;;;;11.38;95.89;100216.97;5015406;28;822;-67
2022/09/07 02:12:35;;;;;;;;;;;;;;;11.37;96.01;100210.66;5015243;28;1421;-67
2022/09/07 02:15:05;;;;;;;;;;;;;;;11.40;96.12;100206.31;4997781;28;1236;-67
2022/09/07 02:17:37;;;;;;;;;;;;;;;11.44;96.23;100216.19;5015278;28;821;-67
2022/09/07 02:20:10;;;;;;;;;;;;;;;11.42;96.27;100212.22;5015198;28;1914;-67
2022/09/07 02:22:42;;;;;;;;;;;;;;;11.40;96.14;100209.84;5015179;28;842;-67
2022/09/07 02:25:11;;;;;;;;;;;;;;;11.42;96.32;100215.00;5015386;28;826;-66
2022/09/07 02:27:40;;;;;;;;;;;;;;;11.44;96.22;100207.09;5015158;28;870;-67
2022/09/07 02:30:07;;;;;;;;;;;;;;;11.45;96.41;100203.91;5014968;28;779;-67
2022/09/07 02:32:33;;;;;;;;;;;;;;;11.44;96.31;100205.09;5015035;28;866;-67
2022/09/07 02:35:01;;;;;;;;;;;;;;;11.43;96.28;100211.03;4997316;28;1193;-67
2022/09/07 02:37:28;;;;;;;;;;;;;;;11.39;96.25;100215.78;5014984;28;882;-67
2022/09/07 02:39:54;;;;;;;;;;;;;;;11.34;96.32;100221.72;5014828;28;816;-67
2022/09/07 02:42:21;;;;;;;;;;;;;;;11.32;96.66;100207.50;5014799;28;1878;-67
2022/09/07 02:44:48;;;;;;;;;;;;;;;11.34;96.73;100210.66;5014729;28;834;-67
2022/09/07 02:47:14;;;;;;;;;;;;;;;11.34;96.72;100207.88;5014715;28;838;-67
2022/09/07 02:49:52;;;;;;;;;;;;;;;11.36;96.87;100203.53;5014770;28;822;-66
2022/09/07 02:52:25;;;;;;;;;;;;;;;11.32;96.70;100202.75;5014666;28;898;-67
2022/09/07 02:55:03;;;;;;;;;;;;;;;11.31;97.00;100203.94;5014528;28;802;-67
2022/09/07 02:57:43;;;;;;;;;;;;;;;11.37;97.40;100207.09;5014528;28;854;-67
2022/09/07 03:00:12;;;;;;;;;;;;;;;11.40;96.79;100214.59;5014607;28;1890;-67
2022/09/07 03:02:51;;;;;;;;;;;;;;;11.38;96.94;100214.22;5014407;28;830;-67
2022/09/07 03:05:23;;;;;;;;;;;;;;;11.36;96.85;100214.59;5014429;28;866;-67
2022/09/07 03:08:08;;;;;;;;;;;;;;;11.31;97.15;100219.75;5014883;28;784;-67
2022/09/07 03:10:36;;;;;;;;;;;;;;;11.23;97.12;100219.75;5014473;28;907;-66
2022/09/07 03:13:03;;;;;;;;;;;;;;;11.18;97.23;100209.09;5012722;28;1318;-66
2022/09/07 03:15:29;;;;;;;;;;;;;;;11.15;97.17;100217.41;5014280;28;823;-66
2022/09/07 03:17:56;;;;;;;;;;;;;;;11.13;97.24;100217.78;5014365;28;779;-67
2022/09/07 03:20:22;;;;;;;;;;;;;;;11.13;97.48;100214.22;5013974;28;1902;-67
2022/09/07 03:22:50;;;;;;;;;;;;;;;11.13;97.93;100214.22;5014090;28;865;-67
2022/09/07 03:25:18;;;;;;;;;;;;;;;11.16;97.95;100218.97;5014053;28;885;-67
2022/09/07 03:27:45;;;;;;;;;;;;;;;11.15;97.81;100220.16;5014006;28;788;-67
2022/09/07 03:30:11;;;;;;;;;;;;;;;11.14;98.01;100224.91;5013918;28;823;-66
2022/09/07 03:32:38;;;;;;;;;;;;;;;11.17;98.35;100228.84;5013783;28;858;-66
2022/09/07 03:35:06;;;;;;;;;;;;;;;11.17;98.26;100228.84;5013846;28;822;-66
2022/09/07 03:37:36;;;;;;;;;;;;;;;11.21;98.45;100227.66;4996129;28;1568;-67
2022/09/07 03:40:04;;;;;;;;;;;;;;;11.25;98.18;100230.44;5014187;28;1886;-67
2022/09/07 03:42:31;;;;;;;;;;;;;;;11.06;97.96;100200.41;5013725;28;795;-67
2022/09/07 03:44:58;;;;;;;;;;;;;;;11.27;98.21;100230.03;5013864;28;881;-67
2022/09/07 03:47:24;;;;;;;;;;;;;;;11.26;98.17;100234.00;5013899;28;827;-67
2022/09/07 03:49:50;;;;;;;;;;;;;;;11.26;98.12;100229.22;5013763;28;886;-67
2022/09/07 03:52:17;;;;;;;;;;;;;;;11.26;98.38;100228.44;5013815;28;902;-67
2022/09/07 03:54:43;;;;;;;;;;;;;;;11.28;97.94;100229.63;5013536;28;882;-67
2022/09/07 03:57:10;;;;;;;;;;;;;;;11.32;98.14;100232.41;5013435;28;841;-67
2022/09/07 03:59:37;;;;;;;;;;;;;;;11.35;98.04;100234.38;5013535;28;822;-67
2022/09/07 04:02:04;;;;;;;;;;;;;;;11.37;97.73;100235.56;5013301;28;1890;-67
2022/09/07 04:04:30;;;;;;;;;;;;;;;11.38;97.61;100239.13;4995597;28;1197;-67
2022/09/07 04:06:57;;;;;;;;;;;;;;;11.39;97.39;100240.69;4995525;28;1279;-67
2022/09/07 04:09:24;;;;;;;;;;;;;;;11.40;97.87;100245.06;5013174;28;874;-67
2022/09/07 04:11:50;;;;;;;;;;;;;;;11.43;97.65;100250.56;5013211;28;1424;-67
2022/09/07 04:14:17;;;;;;;;;;;;;;;11.45;97.42;100244.63;5013092;28;818;-67
2022/09/07 04:16:44;;;;;;;;;;;;;;;11.52;97.09;100241.06;5013081;28;850;-67
2022/09/07 04:19:11;;;;;;;;;;;;;;;11.59;97.15;100243.84;5012982;28;798;-66
2022/09/07 04:21:37;;;;;;;;;;;;;;;11.68;96.73;100249.75;5012851;28;1910;-67
2022/09/07 04:24:04;;;;;;;;;;;;;;;11.76;96.68;100256.84;4994944;28;834;-67
2022/09/07 04:26:32;;;;;;;;;;;;;;;11.85;96.30;100256.41;5012861;28;870;-67
2022/09/07 04:29:02;;;;;;;;;;;;;;;11.94;96.27;100253.25;5013116;28;827;-67
2022/09/07 04:31:29;;;;;;;;;;;;;;;12.03;95.66;100257.19;5013246;28;834;-67
2022/09/07 04:33:56;;;;;;;;;;;;;;;12.10;95.19;100258.34;5012925;28;858;-67
2022/09/07 04:36:23;;;;;;;;;;;;;;;12.19;94.95;100253.16;5012948;28;783;-67
2022/09/07 04:38:58;;;;;;;;;;;;;;;12.29;94.44;100249.56;5012633;28;850;-67
2022/09/07 04:41:25;;;;;;;;;;;;;;;12.42;93.89;100252.66;5012622;28;1939;-67
2022/09/07 04:43:53;;;;;;;;;;;;;;;12.57;93.40;100253.38;5012598;28;897;-67
2022/09/07 04:46:22;;;;;;;;;;;;;;;12.71;92.61;100264.38;5012517;28;894;-67
2022/09/07 04:48:49;;;;;;;;;;;;;;;12.86;91.85;100253.97;5012539;28;803;-67
2022/09/07 04:51:16;;;;;;;;;;;;;;;13.03;91.31;100260.59;4994711;28;1343;-67
2022/09/07 04:53:46;;;;;;;;;;;;;;;13.21;90.73;100264.00;5012679;28;910;-67
2022/09/07 04:56:13;;;;;;;;;;;;;;;13.37;89.86;100268.28;5012654;28;870;-67
2022/09/07 04:58:40;;;;;;;;;;;;;;;13.53;88.97;100267.72;5012411;28;866;-67
2022/09/07 05:01:06;;;;;;;;;;;;;;;13.69;87.88;100273.50;5012154;28;1882;-67
2022/09/07 05:03:36;;;;;;;;;;;;;;;13.85;87.16;100267.41;4994842;28;1160;-67
2022/09/07 05:06:02;;;;;;;;;;;;;;;13.98;86.64;100271.22;5012113;28;818;-67
2022/09/07 05:08:34;;;;;;;;;;;;;;;14.11;85.85;100274.25;5012102;28;869;-67
2022/09/07 05:11:01;;;;;;;;;;;;;;;14.23;85.10;100279.28;5012340;28;977;-67
2022/09/07 05:13:28;;;;;;;;;;;;;;;14.36;84.44;100279.50;5011932;28;1389;-67
2022/09/07 05:15:54;;;;;;;;;;;;;;;14.49;83.52;100279.75;5012066;28;858;-67
2022/09/07 05:18:21;;;;;;;;;;;;;;;14.65;83.09;100285.50;5011985;28;831;-67
2022/09/07 05:20:47;;;;;;;;;;;;;;;14.79;82.24;100273.38;5011942;28;1985;-67
2022/09/07 05:23:13;;;;;;;;;;;;;;;14.96;81.79;100279.91;5011862;28;892;-67
2022/09/07 05:25:43;;;;;;;;;;;;;;;15.16;81.24;100268.84;5011942;28;823;-67
2022/09/07 05:28:10;;;;;;;;;;;;;;;15.41;80.40;100267.66;5011970;28;812;-67
2022/09/07 05:30:37;;;;;;;;;;;;;;;15.65;79.42;100268.41;5011985;28;834;-67
2022/09/07 05:33:04;;;;;;;;;;;;;;;15.84;78.44;100276.03;4994294;28;839;-67
2022/09/07 05:35:30;;;;;;;;;;;;;;;16.04;77.71;100273.25;5010887;28;850;-67
2022/09/07 05:37:57;;;;;;;;;;;;;;;16.28;77.04;100282.34;5012046;28;811;-67
2022/09/07 05:40:23;;;;;;;;;;;;;;;16.50;75.89;100281.88;5011776;28;1925;-66
2022/09/07 05:42:49;;;;;;;;;;;;;;;16.69;75.08;100278.28;5011775;28;818;-66
2022/09/07 05:45:16;;;;;;;;;;;;;;;16.87;73.88;100283.47;5011672;28;771;-67
2022/09/07 05:47:42;;;;;;;;;;;;;;;17.01;73.16;100284.38;5011766;28;863;-66
2022/09/07 05:50:09;;;;;;;;;;;;;;;17.22;72.61;100274.66;5012032;28;882;-66
2022/09/07 05:52:36;;;;;;;;;;;;;;;17.41;71.63;100273.81;5011685;28;865;-67
2022/09/07 05:55:02;;;;;;;;;;;;;;;17.65;70.52;100281.97;5011630;28;846;-67
2022/09/07 05:57:29;;;;;;;;;;;;;;;17.86;69.62;100278.63;5011615;28;853;-67
2022/09/07 05:59:56;;;;;;;;;;;;;;;18.09;68.50;100280.41;5011510;28;823;-67
2022/09/07 06:02:22;;;;;;;;;;;;;;;18.32;67.87;100284.91;5011846;28;1886;-67
2022/09/07 06:04:49;;;;;;;;;;;;;;;18.58;67.10;100282.16;5011471;28;839;-66
2022/09/07 06:07:16;;;;;;;;;;;;;;;18.87;65.88;100284.91;5011537;28;783;-67
2022/09/07 06:09:43;;;;;;;;;;;;;;;19.07;64.77;100290.25;5011563;28;807;-67
2022/09/07 06:12:10;;;;;;;;;;;;;;;19.33;63.93;100284.63;5011400;28;1411;-67
2022/09/07 06:14:36;;;;;;;;;;;;;;;19.51;63.10;100279.22;5011479;28;827;-67
2022/09/07 06:17:03;;;;;;;;;;;;;;;19.77;62.35;100279.94;5011501;28;819;-67
2022/09/07 06:19:30;;;;;;;;;;;;;;;20.03;61.48;100281.84;5011415;28;837;-68
2022/09/07 06:21:56;;;;;;;;;;;;;;;20.30;60.42;100282.06;5011264;28;1909;-67
2022/09/07 06:24:23;;;;;;;;;;;;;;;20.44;59.38;100289.16;5011463;28;897;-66
2022/09/07 06:26:49;;;;;;;;;;;;;;;20.60;58.88;100288.94;5011276;28;874;-68
2022/09/07 06:29:16;;;;;;;;;;;;;;;20.92;57.74;100286.91;5011373;28;822;-67
2022/09/07 06:31:43;;;;;;;;;;;;;;;21.27;56.14;100288.72;5011364;28;909;-67
2022/09/07 06:34:09;;;;;;;;;;;;;;;21.63;54.98;100293.66;5011157;28;910;-67
2022/09/07 06:36:36;;;;;;;;;;;;;;;22.22;54.07;100293.50;5011454;28;794;-67
2022/09/07 06:39:03;;;;;;;;;;;;;;;22.70;52.77;100287.31;5011262;28;933;-67
2022/09/07 06:41:29;;;;;;;;;;;;;;;23.21;50.38;100287.28;5011391;28;1948;-67
2022/09/07 06:43:56;;;;;;;;;;;;;;;23.86;49.03;100298.13;5011225;28;831;-68
2022/09/07 06:46:23;;;;;;;;;;;;;;;25.04;46.85;100296.59;5011511;28;791;-67
2022/09/07 06:48:53;;;;;;;;;;;;;;;26.23;44.23;100287.56;5014871;28;815;-67
2022/09/07 06:51:21;;;;;;;;;;;;;;;27.00;41.99;100290.81;5014599;28;860;-67
2022/09/07 06:53:48;;;;;;;;;;;;;;;27.65;40.41;100296.59;5014621;28;807;-67
2022/09/07 06:56:17;;;;;;;;;;;;;;;27.92;39.28;100296.47;5014565;28;858;-68
2022/09/07 06:58:44;;;;;;;;;;;;;;;28.08;38.18;100295.75;5014548;28;878;-67
2022/09/07 07:01:10;;;;;;;;;;;;;;;28.29;38.54;100299.91;5014419;28;1894;-68
2022/09/07 07:03:37;;;;;;;;;;;;;;;28.68;37.19;100295.56;5014393;28;891;-68
2022/09/07 07:06:04;;;;;;;;;;;;;;;28.88;37.03;100295.28;5014381;28;878;-68
2022/09/07 07:08:30;;;;;;;;;;;;;;;29.24;36.29;100295.50;5014291;28;841;-68
2022/09/07 07:11:00;;;;;;;;;;;;;;;29.14;35.28;100293.47;5014320;28;912;-67
2022/09/07 07:13:27;;;;;;;;;;;;;;;28.95;35.68;100299.66;5014090;28;1273;-69
2022/09/07 07:16:00;;;;;;;;;;;;;;;29.26;35.40;100289.28;5014332;28;858;-69
2022/09/07 07:18:27;;;;;;;;;;;;;;;29.75;34.28;100295.34;4996771;28;1153;-67
2022/09/07 07:20:53;;;;;;;;;;;;;;;29.13;34.39;100300.44;5014727;28;1989;-68
2022/09/07 07:23:20;;;;;;;;;;;;;;;28.43;35.72;100298.09;5014452;28;854;-68
2022/09/07 07:25:47;;;;;;;;;;;;;;;28.19;36.78;100298.59;5014615;28;822;-68
2022/09/07 07:28:13;;;;;;;;;;;;;;;27.86;36.60;100302.88;5014521;28;866;-66
2022/09/07 07:30:40;;;;;;;;;;;;;;;27.23;37.28;100294.59;5013881;28;807;-68
2022/09/07 07:33:07;;;;;;;;;;;;;;;27.05;36.96;100299.34;5013746;28;827;-69
2022/09/07 07:35:34;;;;;;;;;;;;;;;27.14;37.37;100294.75;5014107;28;838;-68
2022/09/07 07:38:01;;;;;;;;;;;;;;;27.34;37.21;100288.19;5013750;28;974;-68
2022/09/07 07:40:28;;;;;;;;;;;;;;;27.56;36.43;100293.97;5013665;28;1890;-67
2022/09/07 07:42:54;;;;;;;;;;;;;;;27.65;36.49;100288.09;4996060;28;1236;-67
2022/09/07 07:45:24;;;;;;;;;;;;;;;27.75;36.28;100291.47;5013710;28;885;-67
2022/09/07 07:47:51;;;;;;;;;;;;;;;27.15;37.89;100290.63;5014449;28;838;-67
2022/09/07 07:50:20;;;;;;;;;;;;;;;28.32;35.94;100285.97;5013755;28;814;-67
2022/09/07 07:52:45;;;;;;;;;;;;;;;29.11;33.33;100286.75;5013550;28;877;-67
2022/09/07 07:55:12;;;;;;;;;;;;;;;29.06;32.53;100288.28;5013715;28;854;-67
2022/09/07 07:57:39;;;;;;;;;;;;;;;28.65;33.64;100290.91;5013595;28;865;-68
2022/09/07 08:00:06;;;;;;;;;;;;;;;27.04;35.38;100289.28;5013034;28;917;-67
2022/09/07 08:02:33;;;;;;;;;;;;;;;26.49;37.65;100281.88;5013527;28;1881;-67
2022/09/07 08:05:00;;;;;;;;;;;;;;;28.12;35.27;100284.09;5013569;28;812;-67
2022/09/07 08:07:26;;;;;;;;;;;;;;;29.46;32.81;100273.94;5014003;28;751;-68
2022/09/07 08:09:53;;;;;;;;;;;;;;;30.12;31.42;100274.16;4995805;28;1162;-68
2022/09/07 08:12:20;;;;;;;;;;;;;;;30.02;30.23;100278.59;5013127;28;1262;-71
2022/09/07 08:14:47;;;;;;;;;;;;;;;29.97;30.25;100270.88;5013402;28;815;-68
2022/09/07 08:17:53;;;;;;;;;;;;;;;29.91;30.43;100274.53;5013161;28;1206;-68
2022/09/07 08:20:27;;;;;;;;;;;;;;;29.60;29.71;100277.78;5012936;28;1959;-67
2022/09/07 08:22:55;;;;;;;;;;;;;;;29.46;30.55;100283.25;4995374;28;1427;-68
2022/09/07 08:25:21;;;;;;;;;;;;;;;29.77;30.20;100275.66;5013002;28;830;-68
2022/09/07 08:27:48;;;;;;;;;;;;;;;30.02;30.03;100272.91;5012898;28;818;-68
2022/09/07 08:30:19;;;;;;;;;;;;;;;30.24;29.78;100278.47;5012756;28;875;-68
2022/09/07 08:32:45;;;;;;;;;;;;;;;30.45;29.26;100278.06;5012727;28;799;-68
2022/09/07 08:47:24;;;;;;;;;;;;;;;29.82;28.37;100266.28;5012863;28;672;-69
2022/09/07 08:50:01;;;;;;;;;;;;;;;29.55;28.80;100267.19;5012515;28;854;-68
2022/09/07 08:52:31;;;;;;;;;;;;;;;29.93;29.38;100262.59;5012453;28;882;-67
2022/09/07 08:55:00;;;;;;;;;;;;;;;30.01;28.15;100265.69;5012459;28;885;-67
2022/09/07 08:57:32;;;;;;;;;;;;;;;29.36;28.55;100264.13;5012348;28;818;-68
2022/09/07 08:59:59;;;;;;;;;;;;;;;29.35;29.46;100259.75;5012589;28;913;-68
2022/09/07 09:02:31;;;;;;;;;;;;;;;28.93;30.73;100256.72;5012154;28;1914;-68
2022/09/07 09:04:58;;;;;;;;;;;;;;;28.96;31.04;100254.94;5012226;28;870;-67
2022/09/07 09:07:50;;;;;;;;;;;;;;;29.29;30.86;100254.84;5012351;28;834;-67
2022/09/07 09:10:17;;;;;;;;;;;;;;;29.67;30.16;100243.03;5012064;28;1021;-68
2022/09/07 09:13:03;;;;;;;;;;;;;;;29.57;29.53;100242.56;5011902;28;1258;-68
2022/09/07 09:15:56;;;;;;;;;;;;;;;29.14;29.88;100245.84;5011724;28;1040;-68
2022/09/07 09:18:33;;;;;;;;;;;;;;;28.40;31.60;100247.19;4994461;28;1499;-67
2022/09/07 09:21:14;;;;;;;;;;;;;;;28.78;31.38;100244.88;5012039;28;1906;-68
2022/09/07 09:23:41;;;;;;;;;;;;;;;28.99;31.00;100234.72;4994309;28;1417;-67
2022/09/07 09:26:08;;;;;;;;;;;;;;;29.08;30.68;100233.66;5011952;28;796;-68
2022/09/07 09:28:46;;;;;;;;;;;;;;;28.99;30.51;100233.97;5011901;28;803;-67
2022/09/07 09:31:19;;;;;;;;;;;;;;;28.98;30.88;100233.19;5011777;28;906;-68
2022/09/07 09:34:19;;;;;;;;;;;;;;;28.88;30.56;100238.38;5011884;28;921;-68
2022/09/07 09:36:55;;;;;;;;;;;;;;;29.10;31.07;100233.94;4989599;28;1319;-68
2022/09/07 09:39:35;;;;;;;;;;;;;;;28.82;30.83;100234.00;5011882;28;950;-68
2022/09/07 09:42:02;;;;;;;;;;;;;;;28.74;30.76;100238.66;5011695;28;1890;-68
2022/09/07 09:44:32;;;;;;;;;;;;;;;28.73;30.68;100243.59;5011763;28;873;-66
2022/09/07 09:53:05;;;;;;;;;;;;;;;29.36;29.63;100230.78;5011613;28;1184;-68
2022/09/07 09:55:33;;;;;;;;;;;;;;;29.68;29.78;100224.66;5011643;28;834;-68
2022/09/07 09:58:05;;;;;;;;;;;;;;;29.79;29.46;100224.63;5011879;28;847;-68
2022/09/07 10:00:32;;;;;;;;;;;;;;;28.59;30.83;100231.19;5011545;28;1878;-66
2022/09/07 10:03:00;;;;;;;;;;;;;;;27.55;32.27;100223.53;5011510;28;1032;-68
2022/09/07 10:05:27;;;;;;;;;;;;;;;27.20;33.18;100221.78;5011636;28;878;-66
2022/09/07 10:07:55;;;;;;;;;;;;;;;28.02;31.92;100233.22;5011488;28;799;-66
2022/09/07 10:10:22;;;;;;;;;;;;;;;28.90;31.07;100227.25;5011500;28;1034;-68
2022/09/07 10:12:51;;;;;;;;;;;;;;;29.12;30.76;100211.44;5011250;28;1320;-69
2022/09/07 10:15:52;;;;;;;;;;;;;;;28.78;31.26;100214.34;5011487;28;918;-67
2022/09/07 10:18:24;;;;;;;;;;;;;;;28.30;31.78;100216.19;5011674;28;914;-66
2022/09/07 10:24:12;;;;;;;;;;;;;;;29.45;30.28;100206.94;5015214;28;641;-67
2022/09/07 10:26:43;;;;;;;;;;;;;;;29.61;29.81;100199.59;5014925;28;1389;-67
2022/09/07 10:29:39;;;;;;;;;;;;;;;29.59;29.73;100199.34;5015098;28;932;-66
2022/09/07 10:32:09;;;;;;;;;;;;;;;29.36;29.68;100195.81;5014930;28;843;-66
2022/09/07 10:34:44;;;;;;;;;;;;;;;29.61;29.66;100196.72;5015068;28;858;-67
2022/09/07 10:37:20;;;;;;;;;;;;;;;29.56;29.67;100191.84;4997320;28;1379;-66
2022/09/07 10:42:55;;;;;;;;;;;;;;;29.56;29.61;100191.84;5014900;28;563;-67
2022/09/07 10:45:38;;;;;;;;;;;;;;;28.96;30.04;100187.41;5014802;28;859;-67
2022/09/07 10:48:18;;;;;;;;;;;;;;;28.83;30.42;100185.13;5014872;28;803;-67
2022/09/07 10:50:50;;;;;;;;;;;;;;;28.03;31.47;100183.63;5014678;28;847;-66
2022/09/07 10:53:25;;;;;;;;;;;;;;;27.43;32.38;100197.94;5014630;28;811;-67
2022/09/07 10:56:10;;;;;;;;;;;;;;;27.32;32.04;100191.44;5014718;28;843;-66
2022/09/07 10:58:55;;;;;;;;;;;;;;;26.95;32.94;100186.59;5014731;28;973;-66
2022/09/07 11:01:32;;;;;;;;;;;;;;;26.68;33.41;100188.78;5014412;28;1890;-66
2022/09/07 11:04:10;;;;;;;;;;;;;;;26.80;32.95;100181.91;5014484;28;795;-66
2022/09/07 11:06:40;;;;;;;;;;;;;;;26.70;33.19;100186.22;5014344;28;894;-67
2022/09/07 11:09:18;;;;;;;;;;;;;;;27.88;32.19;100169.66;5014515;28;827;-67
2022/09/07 11:11:56;;;;;;;;;;;;;;;29.22;29.48;100177.78;5014288;28;1207;-69
2022/09/07 11:14:23;;;;;;;;;;;;;;;29.81;28.44;100170.75;5014239;28;1051;-68
2022/09/07 11:17:07;;;;;;;;;;;;;;;29.83;28.17;100176.69;5014153;28;819;-69
2022/09/07 11:22:57;;;;;;;;;;;;;;;28.29;29.49;100186.22;5014105;28;1922;-67
2022/09/07 11:25:30;;;;;;;;;;;;;;;28.68;29.74;100179.75;5014238;28;873;-66
2022/09/07 11:28:23;;;;;;;;;;;;;;;29.48;28.54;100177.38;5014269;28;811;-66
2022/09/07 11:30:53;;;;;;;;;;;;;;;29.55;27.54;100165.44;4989759;28;1336;-67
2022/09/07 11:33:33;;;;;;;;;;;;;;;30.33;26.81;100169.81;5012831;28;827;-67
2022/09/07 11:36:01;;;;;;;;;;;;;;;31.21;26.30;100164.22;5013867;28;970;-67
2022/09/07 11:38:32;;;;;;;;;;;;;;;31.85;25.56;100157.88;5014186;28;855;-66
2022/09/07 11:41:21;;;;;;;;;;;;;;;32.10;24.59;100161.41;5013733;28;1902;-68
2022/09/07 11:43:55;;;;;;;;;;;;;;;31.02;25.60;100159.25;5006226;28;1366;-66
2022/09/07 11:46:37;;;;;;;;;;;;;;;29.89;26.94;100157.50;5013858;28;854;-66
2022/09/07 11:49:06;;;;;;;;;;;;;;;29.72;27.50;100148.28;4995891;28;1279;-66
2022/09/07 11:51:35;;;;;;;;;;;;;;;29.56;27.95;100143.44;5013620;28;878;-67
2022/09/07 11:54:15;;;;;;;;;;;;;;;28.94;28.68;100143.72;5013818;28;747;-67
2022/09/07 11:56:45;;;;;;;;;;;;;;;28.38;29.39;100136.88;5013636;28;839;-67
2022/09/07 11:59:22;;;;;;;;;;;;;;;28.68;29.17;100137.09;5013321;28;811;-67
2022/09/07 12:01:56;;;;;;;;;;;;;;;30.04;27.65;100131.47;5013274;28;1894;-67
2022/09/07 12:04:45;;;;;;;;;;;;;;;30.74;26.20;100131.03;5013661;28;859;-68
2022/09/07 12:07:20;;;;;;;;;;;;;;;31.14;25.43;100131.38;5013555;28;881;-68
2022/09/07 12:10:01;;;;;;;;;;;;;;;31.39;25.47;100131.28;5013187;28;858;-68
2022/09/07 12:12:36;;;;;;;;;;;;;;;31.52;25.01;100128.53;5013244;28;1173;-68
2022/09/07 12:15:21;;;;;;;;;;;;;;;31.34;25.38;100127.97;5013100;28;847;-67
2022/09/07 12:18:06;;;;;;;;;;;;;;;31.38;25.07;100121.19;5013131;28;863;-65
2022/09/07 12:23:44;;;;;;;;;;;;;;;31.11;24.84;100124.66;5013003;28;617;-65
2022/09/07 12:26:30;;;;;;;;;;;;;;;31.41;25.19;100126.59;4995592;28;1216;-66
2022/09/07 12:28:57;;;;;;;;;;;;;;;31.34;24.89;100122.28;5012883;28;843;-65
2022/09/07 12:31:41;;;;;;;;;;;;;;;31.63;24.39;100133.31;5013112;28;823;-65
2022/09/07 12:34:26;;;;;;;;;;;;;;;31.45;24.59;100124.22;5012880;28;834;-66
2022/09/07 12:37:04;;;;;;;;;;;;;;;31.23;24.71;100130.97;5012710;28;842;-66
2022/09/07 12:42:44;;;;;;;;;;;;;;;31.17;25.50;100124.56;5012834;28;1965;-65
2022/09/07 12:45:30;;;;;;;;;;;;;;;31.23;25.33;100111.00;5012240;28;803;-67
2022/09/07 12:47:58;;;;;;;;;;;;;;;31.11;25.32;100118.94;5012562;28;854;-67
2022/09/07 12:50:44;;;;;;;;;;;;;;;30.74;25.64;100119.63;5012512;28;858;-68
2022/09/07 12:56:56;;;;;;;;;;;;;;;30.12;25.85;100111.69;5012421;28;668;-67
2022/09/07 12:59:34;;;;;;;;;;;;;;;29.58;26.49;100109.53;5012328;28;854;-66
2022/09/07 13:02:12;;;;;;;;;;;;;;;29.68;26.78;100110.72;5012206;28;1898;-66
2022/09/07 13:04:45;;;;;;;;;;;;;;;30.12;26.26;100111.69;5012286;28;851;-67
2022/09/07 13:07:32;;;;;;;;;;;;;;;30.28;26.08;100113.66;4994665;28;1565;-67
2022/09/07 13:10:23;;;;;;;;;;;;;;;30.34;25.63;100113.56;5012157;28;1211;-68
2022/09/07 13:12:51;;;;;;;;;;;;;;;30.22;25.50;100117.84;5011945;28;1131;-66
2022/09/07 13:15:37;;;;;;;;;;;;;;;30.10;26.28;100117.16;5012106;28;823;-67
2022/09/07 13:18:03;;;;;;;;;;;;;;;30.21;25.90;100121.97;5012186;28;810;-66
2022/09/07 13:20:53;;;;;;;;;;;;;;;29.88;25.99;100110.34;5011947;28;1967;-67
2022/09/07 13:23:23;;;;;;;;;;;;;;;29.86;26.51;100124.34;5012021;28;863;-67
2022/09/07 13:25:52;;;;;;;;;;;;;;;29.48;26.44;100106.97;4994427;28;1212;-67
2022/09/07 13:28:26;;;;;;;;;;;;;;;29.23;27.18;100113.84;5011783;28;807;-67
2022/09/07 13:30:55;;;;;;;;;;;;;;;29.30;26.42;100113.31;5012069;28;870;-67
2022/09/07 13:33:26;;;;;;;;;;;;;;;29.24;26.77;100104.03;5011902;28;810;-67
2022/09/07 13:35:59;;;;;;;;;;;;;;;29.22;26.92;100121.63;5011867;28;882;-66
2022/09/07 13:38:29;;;;;;;;;;;;;;;29.10;26.81;100106.69;5011860;28;834;-67
2022/09/07 13:41:02;;;;;;;;;;;;;;;28.89;27.53;100119.66;5011807;28;1948;-67
2022/09/07 13:55:46;;;;;;;;;;;;;;;28.08;28.20;100130.97;5011981;28;617;-66
2022/09/07 13:58:16;;;;;;;;;;;;;;;27.92;28.40;100132.50;5015235;28;865;-66
2022/09/07 14:00:58;;;;;;;;;;;;;;;27.67;28.79;100137.06;5015495;28;1882;-66
2022/09/07 14:03:35;;;;;;;;;;;;;;;27.71;28.65;100140.44;5015669;28;830;-65
2022/09/07 14:06:24;;;;;;;;;;;;;;;27.61;28.57;100134.25;5015522;28;819;-67
2022/09/07 14:08:52;;;;;;;;;;;;;;;27.46;29.17;100128.81;5015519;28;800;-66
2022/09/07 14:11:24;;;;;;;;;;;;;;;27.44;28.60;100127.75;5015391;28;1491;-66
2022/09/07 14:14:25;;;;;;;;;;;;;;;27.36;28.58;100121.81;4997697;28;1274;-66